sensor_id;sensor_type;location;lat;lon;timestamp;pressure;altitude;pressure_sealevel;temperature;humidity
48718;BME280;34521;33.042;-96.586;2023-05-10T00:00:55;99350.39;;;23.77;37.50
48718;BME280;34521;33.042;-96.586;2023-05-10T00:03:20;99345.68;;;23.89;36.04
48718;BME280;34521;33.042;-96.586;2023-05-10T00:05:45;99339.48;;;23.80;36.29
48718;BME280;34521;33.042;-96.586;2023-05-10T00:08:10;99338.11;;;23.98;36.59
48718;BME280;34521;33.042;-96.586;2023-05-10T00:10:35;99338.28;;;24.03;36.54
48718;BME280;34521;33.042;-96.586;2023-05-10T00:13:01;99338.32;;;23.75;36.43
48718;BME280;34521;33.042;-96.586;2023-05-10T00:15:26;99343.49;;;22.97;36.04
48718;BME280;34521;33.042;-96.586;2023-05-10T00:17:51;99341.77;;;23.11;36.04
48718;BME280;34521;33.042;-96.586;2023-05-10T00:20:16;99345.09;;;23.23;35.93
48718;BME280;34521;33.042;-96.586;2023-05-10T00:22:41;99347.35;;;23.24;36.30
48718;BME280;34521;33.042;-96.586;2023-05-10T00:25:08;99349.83;;;23.61;35.88
48718;BME280;34521;33.042;-96.586;2023-05-10T00:27:33;99352.24;;;23.89;35.58
48718;BME280;34521;33.042;-96.586;2023-05-10T00:29:56;99354.97;;;24.60;34.70
48718;BME280;34521;33.042;-96.586;2023-05-10T00:32:22;99357.81;;;24.07;36.28
48718;BME280;34521;33.042;-96.586;2023-05-10T00:34:47;99356.60;;;23.55;37.41
48718;BME280;34521;33.042;-96.586;2023-05-10T00:37:12;99355.61;;;23.84;37.23
48718;BME280;34521;33.042;-96.586;2023-05-10T00:39:42;99355.38;;;23.38;36.84
48718;BME280;34521;33.042;-96.586;2023-05-10T00:42:02;99352.79;;;23.87;35.38
48718;BME280;34521;33.042;-96.586;2023-05-10T00:44:27;99348.91;;;23.63;34.72
48718;BME280;34521;33.042;-96.586;2023-05-10T00:46:53;99344.99;;;23.33;34.39
48718;BME280;34521;33.042;-96.586;2023-05-10T00:49:18;99342.20;;;23.24;33.91
48718;BME280;34521;33.042;-96.586;2023-05-10T00:51:42;99349.80;;;22.86;33.94
48718;BME280;34521;33.042;-96.586;2023-05-10T00:54:08;99356.36;;;22.35;35.16
48718;BME280;34521;33.042;-96.586;2023-05-10T00:56:32;99356.67;;;22.86;34.65
48718;BME280;34521;33.042;-96.586;2023-05-10T00:58:57;99352.00;;;23.26;34.37
48718;BME280;34521;33.042;-96.586;2023-05-10T01:01:23;99350.90;;;23.56;34.14
48718;BME280;34521;33.042;-96.586;2023-05-10T01:03:48;99351.72;;;23.32;34.33
48718;BME280;34521;33.042;-96.586;2023-05-10T01:06:13;99357.57;;;22.86;34.99
48718;BME280;34521;33.042;-96.586;2023-05-10T01:08:37;99354.49;;;23.12;34.10
48718;BME280;34521;33.042;-96.586;2023-05-10T01:11:02;99355.78;;;22.92;33.66
48718;BME280;34521;33.042;-96.586;2023-05-10T01:13:32;99357.72;;;22.80;34.11
48718;BME280;34521;33.042;-96.586;2023-05-10T01:15:53;99366.24;;;22.87;34.20
48718;BME280;34521;33.042;-96.586;2023-05-10T01:18:20;99368.37;;;22.74;34.32
48718;BME280;34521;33.042;-96.586;2023-05-10T01:20:48;99370.57;;;23.09;34.30
48718;BME280;34521;33.042;-96.586;2023-05-10T01:23:23;99365.31;;;23.35;33.78
48718;BME280;34521;33.042;-96.586;2023-05-10T01:32:52;99387.05;;;22.42;33.79
48718;BME280;34521;33.042;-96.586;2023-05-10T01:35:18;99382.66;;;22.55;34.29
48718;BME280;34521;33.042;-96.586;2023-05-10T01:37:44;99382.14;;;22.62;34.16
48718;BME280;34521;33.042;-96.586;2023-05-10T01:40:11;99387.77;;;22.96;33.90
48718;BME280;34521;33.042;-96.586;2023-05-10T01:42:35;99396.92;;;22.92;33.78
48718;BME280;34521;33.042;-96.586;2023-05-10T01:44:58;99403.70;;;22.88;33.97
48718;BME280;34521;33.042;-96.586;2023-05-10T01:47:24;99400.26;;;23.38;33.49
48718;BME280;34521;33.042;-96.586;2023-05-10T01:49:47;99402.15;;;23.66;33.58
48718;BME280;34521;33.042;-96.586;2023-05-10T01:52:10;99408.70;;;22.52;34.61
48718;BME280;34521;33.042;-96.586;2023-05-10T01:54:34;99410.77;;;22.42;34.11
48718;BME280;34521;33.042;-96.586;2023-05-10T01:57:03;99418.15;;;22.67;34.03
48718;BME280;34521;33.042;-96.586;2023-05-10T01:59:28;99423.73;;;22.50;34.25
48718;BME280;34521;33.042;-96.586;2023-05-10T02:01:49;99422.16;;;22.51;34.37
48718;BME280;34521;33.042;-96.586;2023-05-10T02:04:16;99424.39;;;22.78;34.20
48718;BME280;34521;33.042;-96.586;2023-05-10T02:06:40;99430.18;;;23.03;34.01
48718;BME280;34521;33.042;-96.586;2023-05-10T02:09:04;99431.19;;;23.24;33.84
48718;BME280;34521;33.042;-96.586;2023-05-10T02:11:30;99433.47;;;23.49;33.67
48718;BME280;34521;33.042;-96.586;2023-05-10T02:13:55;99436.35;;;22.34;35.01
48718;BME280;34521;33.042;-96.586;2023-05-10T02:16:23;99439.08;;;22.66;33.99
48718;BME280;34521;33.042;-96.586;2023-05-10T02:18:44;99438.16;;;22.95;33.02
48718;BME280;34521;33.042;-96.586;2023-05-10T02:21:09;99436.75;;;22.85;34.20
48718;BME280;34521;33.042;-96.586;2023-05-10T02:23:36;99437.58;;;22.33;34.26
48718;BME280;34521;33.042;-96.586;2023-05-10T02:25:59;99440.20;;;22.14;34.43
48718;BME280;34521;33.042;-96.586;2023-05-10T02:28:25;99445.23;;;22.78;34.05
48718;BME280;34521;33.042;-96.586;2023-05-10T02:30:49;99445.19;;;23.15;33.70
48718;BME280;34521;33.042;-96.586;2023-05-10T02:33:16;99444.48;;;23.17;33.77
48718;BME280;34521;33.042;-96.586;2023-05-10T02:35:40;99444.36;;;23.58;33.35
48718;BME280;34521;33.042;-96.586;2023-05-10T02:38:05;99450.09;;;22.63;35.02
48718;BME280;34521;33.042;-96.586;2023-05-10T02:40:30;99448.52;;;22.58;33.85
48718;BME280;34521;33.042;-96.586;2023-05-10T02:42:56;99448.16;;;22.66;33.23
48718;BME280;34521;33.042;-96.586;2023-05-10T02:45:21;99450.53;;;22.99;33.87
48718;BME280;34521;33.042;-96.586;2023-05-10T02:47:44;99458.51;;;22.41;34.12
48718;BME280;34521;33.042;-96.586;2023-05-10T02:50:10;99461.57;;;22.45;34.24
48718;BME280;34521;33.042;-96.586;2023-05-10T02:52:40;99462.98;;;23.03;33.62
48718;BME280;34521;33.042;-96.586;2023-05-10T02:55:02;99460.05;;;22.75;33.75
48718;BME280;34521;33.042;-96.586;2023-05-10T02:57:28;99453.91;;;23.27;33.48
48718;BME280;34521;33.042;-96.586;2023-05-10T02:59:49;99455.64;;;23.35;35.38
48718;BME280;34521;33.042;-96.586;2023-05-10T03:02:15;99458.18;;;22.41;36.28
48718;BME280;34521;33.042;-96.586;2023-05-10T03:04:40;99465.61;;;22.88;34.94
48718;BME280;34521;33.042;-96.586;2023-05-10T03:07:05;99467.61;;;22.88;33.93
48718;BME280;34521;33.042;-96.586;2023-05-10T03:09:30;99467.09;;;22.51;34.69
48718;BME280;34521;33.042;-96.586;2023-05-10T03:12:00;99466.12;;;22.35;34.70
48718;BME280;34521;33.042;-96.586;2023-05-10T03:14:31;99470.95;;;22.48;34.68
48718;BME280;34521;33.042;-96.586;2023-05-10T03:16:48;99469.61;;;22.97;34.18
48718;BME280;34521;33.042;-96.586;2023-05-10T03:19:17;99475.01;;;23.09;34.15
48718;BME280;34521;33.042;-96.586;2023-05-10T03:21:36;99477.63;;;23.25;33.97
48718;BME280;34521;33.042;-96.586;2023-05-10T03:24:06;99482.22;;;23.09;33.95
48718;BME280;34521;33.042;-96.586;2023-05-10T03:26:27;99483.60;;;23.26;34.10
48718;BME280;34521;33.042;-96.586;2023-05-10T03:28:51;99481.46;;;22.47;35.38
48718;BME280;34521;33.042;-96.586;2023-05-10T03:31:16;99487.12;;;22.61;34.24
48718;BME280;34521;33.042;-96.586;2023-05-10T03:33:47;99491.98;;;22.65;33.86
48718;BME280;34521;33.042;-96.586;2023-05-10T03:36:06;99502.92;;;22.63;34.06
48718;BME280;34521;33.042;-96.586;2023-05-10T03:38:31;99503.77;;;22.87;34.27
48718;BME280;34521;33.042;-96.586;2023-05-10T03:40:56;99505.08;;;22.55;34.25
48718;BME280;34521;33.042;-96.586;2023-05-10T03:43:21;99497.77;;;22.61;33.98
48718;BME280;34521;33.042;-96.586;2023-05-10T03:45:46;99493.67;;;22.92;33.66
48718;BME280;34521;33.042;-96.586;2023-05-10T03:48:11;99497.04;;;23.18;33.73
48718;BME280;34521;33.042;-96.586;2023-05-10T03:50:36;99496.32;;;23.29;33.66
48718;BME280;34521;33.042;-96.586;2023-05-10T03:53:01;99490.58;;;23.51;33.29
48718;BME280;34521;33.042;-96.586;2023-05-10T03:55:26;99494.60;;;23.44;33.39
48718;BME280;34521;33.042;-96.586;2023-05-10T03:57:51;99494.33;;;22.15;35.27
48718;BME280;34521;33.042;-96.586;2023-05-10T04:00:16;99495.92;;;22.67;34.12
48718;BME280;34521;33.042;-96.586;2023-05-10T04:02:41;99499.39;;;22.63;34.11
48718;BME280;34521;33.042;-96.586;2023-05-10T04:05:06;99501.38;;;22.63;33.76
48718;BME280;34521;33.042;-96.586;2023-05-10T04:07:31;99498.71;;;22.20;34.42
48718;BME280;34521;33.042;-96.586;2023-05-10T04:09:56;99502.34;;;22.59;34.10
48718;BME280;34521;33.042;-96.586;2023-05-10T04:12:21;99497.74;;;22.93;34.10
48718;BME280;34521;33.042;-96.586;2023-05-10T04:14:46;99491.24;;;22.91;33.85
48718;BME280;34521;33.042;-96.586;2023-05-10T04:17:11;99486.43;;;23.09;33.70
48718;BME280;34521;33.042;-96.586;2023-05-10T04:19:36;99487.49;;;23.35;33.46
48718;BME280;34521;33.042;-96.586;2023-05-10T04:22:02;99488.56;;;23.02;33.68
48718;BME280;34521;33.042;-96.586;2023-05-10T04:24:26;99494.92;;;22.95;33.91
48718;BME280;34521;33.042;-96.586;2023-05-10T04:26:52;99500.46;;;23.06;34.59
48718;BME280;34521;33.042;-96.586;2023-05-10T04:29:16;99499.70;;;22.56;34.68
48718;BME280;34521;33.042;-96.586;2023-05-10T04:31:41;99504.11;;;22.50;33.91
48718;BME280;34521;33.042;-96.586;2023-05-10T04:34:07;99507.69;;;22.18;34.88
48718;BME280;34521;33.042;-96.586;2023-05-10T04:36:31;99510.10;;;22.47;34.21
48718;BME280;34521;33.042;-96.586;2023-05-10T04:38:57;99512.48;;;22.44;34.16
48718;BME280;34521;33.042;-96.586;2023-05-10T04:41:22;99513.86;;;22.47;34.21
48718;BME280;34521;33.042;-96.586;2023-05-10T04:43:47;99518.22;;;22.95;33.74
48718;BME280;34521;33.042;-96.586;2023-05-10T04:46:12;99520.45;;;23.11;33.58
48718;BME280;34521;33.042;-96.586;2023-05-10T04:48:37;99518.88;;;22.93;33.58
48718;BME280;34521;33.042;-96.586;2023-05-10T04:51:02;99522.46;;;22.97;33.93
48718;BME280;34521;33.042;-96.586;2023-05-10T04:53:27;99523.58;;;23.24;33.71
48718;BME280;34521;33.042;-96.586;2023-05-10T04:55:52;99523.25;;;22.43;36.04
48718;BME280;34521;33.042;-96.586;2023-05-10T04:58:17;99522.08;;;23.23;34.94
48718;BME280;34521;33.042;-96.586;2023-05-10T05:00:42;99515.79;;;21.78;36.85
48718;BME280;34521;33.042;-96.586;2023-05-10T05:03:07;99513.26;;;22.52;35.21
48718;BME280;34521;33.042;-96.586;2023-05-10T05:05:32;99511.79;;;22.09;34.95
48718;BME280;34521;33.042;-96.586;2023-05-10T05:07:57;99512.42;;;22.26;35.46
48718;BME280;34521;33.042;-96.586;2023-05-10T05:10:22;99511.85;;;22.21;35.09
48718;BME280;34521;33.042;-96.586;2023-05-10T05:12:47;99515.27;;;22.13;35.01
48718;BME280;34521;33.042;-96.586;2023-05-10T05:15:12;99520.77;;;23.04;34.27
48718;BME280;34521;33.042;-96.586;2023-05-10T05:17:37;99523.23;;;22.74;34.38
48718;BME280;34521;33.042;-96.586;2023-05-10T05:20:02;99521.93;;;23.19;33.90
48718;BME280;34521;33.042;-96.586;2023-05-10T05:22:27;99520.46;;;23.20;33.91
48718;BME280;34521;33.042;-96.586;2023-05-10T05:24:52;99517.98;;;23.18;34.00
48718;BME280;34521;33.042;-96.586;2023-05-10T05:27:17;99522.92;;;23.15;34.13
48718;BME280;34521;33.042;-96.586;2023-05-10T05:29:42;99523.87;;;23.46;33.85
48718;BME280;34521;33.042;-96.586;2023-05-10T05:32:07;99519.65;;;23.20;34.26
48718;BME280;34521;33.042;-96.586;2023-05-10T05:34:32;99513.80;;;23.14;34.75
48718;BME280;34521;33.042;-96.586;2023-05-10T05:36:58;99509.60;;;21.97;35.48
48718;BME280;34521;33.042;-96.586;2023-05-10T05:39:23;99508.53;;;22.08;34.54
48718;BME280;34521;33.042;-96.586;2023-05-10T05:41:48;99509.37;;;22.60;34.60
48718;BME280;34521;33.042;-96.586;2023-05-10T05:44:13;99508.50;;;22.41;34.49
48718;BME280;34521;33.042;-96.586;2023-05-10T05:46:38;99509.41;;;22.48;34.60
48718;BME280;34521;33.042;-96.586;2023-05-10T05:49:03;99513.75;;;22.70;34.07
48718;BME280;34521;33.042;-96.586;2023-05-10T05:51:28;99513.10;;;22.74;34.13
48718;BME280;34521;33.042;-96.586;2023-05-10T05:53:53;99511.86;;;22.28;36.28
48718;BME280;34521;33.042;-96.586;2023-05-10T05:56:18;99510.35;;;22.15;36.75
48718;BME280;34521;33.042;-96.586;2023-05-10T05:58:43;99508.64;;;22.93;36.05
48718;BME280;34521;33.042;-96.586;2023-05-10T06:01:08;99507.01;;;22.75;35.70
48718;BME280;34521;33.042;-96.586;2023-05-10T06:03:33;99501.94;;;23.03;35.28
48718;BME280;34521;33.042;-96.586;2023-05-10T06:05:58;99507.94;;;23.27;34.86
48718;BME280;34521;33.042;-96.586;2023-05-10T06:08:23;99513.98;;;23.30;34.79
48718;BME280;34521;33.042;-96.586;2023-05-10T06:10:48;99514.72;;;23.20;34.58
48718;BME280;34521;33.042;-96.586;2023-05-10T06:13:13;99505.89;;;22.67;35.71
48718;BME280;34521;33.042;-96.586;2023-05-10T06:15:39;99503.11;;;22.09;35.14
48718;BME280;34521;33.042;-96.586;2023-05-10T06:18:03;99499.68;;;22.15;34.86
48718;BME280;34521;33.042;-96.586;2023-05-10T06:20:29;99498.16;;;22.46;34.70
48718;BME280;34521;33.042;-96.586;2023-05-10T06:22:54;99504.98;;;22.08;34.93
48718;BME280;34521;33.042;-96.586;2023-05-10T06:25:19;99513.11;;;22.50;34.85
48718;BME280;34521;33.042;-96.586;2023-05-10T06:27:44;99512.65;;;22.48;34.64
48718;BME280;34521;33.042;-96.586;2023-05-10T06:30:09;99516.20;;;22.68;34.46
48718;BME280;34521;33.042;-96.586;2023-05-10T06:32:34;99518.44;;;22.91;34.23
48718;BME280;34521;33.042;-96.586;2023-05-10T06:34:58;99526.49;;;23.21;33.90
48718;BME280;34521;33.042;-96.586;2023-05-10T06:37:24;99533.29;;;23.12;34.16
48718;BME280;34521;33.042;-96.586;2023-05-10T06:39:49;99535.53;;;23.05;34.30
48718;BME280;34521;33.042;-96.586;2023-05-10T06:42:14;99533.61;;;23.33;34.00
48718;BME280;34521;33.042;-96.586;2023-05-10T06:44:39;99526.87;;;23.12;34.30
48718;BME280;34521;33.042;-96.586;2023-05-10T06:47:04;99527.14;;;23.31;34.10
48718;BME280;34521;33.042;-96.586;2023-05-10T06:49:29;99524.77;;;21.74;35.54
48718;BME280;34521;33.042;-96.586;2023-05-10T06:51:55;99527.80;;;21.89;35.00
48718;BME280;34521;33.042;-96.586;2023-05-10T06:54:19;99525.75;;;21.98;35.58
48718;BME280;34521;33.042;-96.586;2023-05-10T06:56:44;99530.55;;;22.49;35.28
48718;BME280;34521;33.042;-96.586;2023-05-10T06:59:09;99530.71;;;22.67;35.11
48718;BME280;34521;33.042;-96.586;2023-05-10T07:01:34;99530.76;;;22.49;35.39
48718;BME280;34521;33.042;-96.586;2023-05-10T07:03:59;99526.82;;;22.41;35.15
48718;BME280;34521;33.042;-96.586;2023-05-10T07:06:24;99526.67;;;22.56;34.98
48718;BME280;34521;33.042;-96.586;2023-05-10T07:08:49;99527.77;;;22.83;34.69
48718;BME280;34521;33.042;-96.586;2023-05-10T07:11:14;99526.33;;;22.85;34.60
48718;BME280;34521;33.042;-96.586;2023-05-10T07:13:39;99525.52;;;22.79;34.44
48718;BME280;34521;33.042;-96.586;2023-05-10T07:16:05;99525.26;;;23.16;34.29
48718;BME280;34521;33.042;-96.586;2023-05-10T07:18:29;99523.61;;;23.19;34.27
48718;BME280;34521;33.042;-96.586;2023-05-10T07:20:54;99521.96;;;23.06;34.48
48718;BME280;34521;33.042;-96.586;2023-05-10T07:23:19;99522.42;;;23.09;34.51
48718;BME280;34521;33.042;-96.586;2023-05-10T07:25:45;99517.90;;;22.34;35.59
48718;BME280;34521;33.042;-96.586;2023-05-10T07:28:09;99517.41;;;21.93;35.49
48718;BME280;34521;33.042;-96.586;2023-05-10T07:30:35;99510.53;;;22.34;34.43
48718;BME280;34521;33.042;-96.586;2023-05-10T07:32:59;99509.77;;;22.43;34.75
48718;BME280;34521;33.042;-96.586;2023-05-10T07:35:24;99503.12;;;22.61;34.46
48718;BME280;34521;33.042;-96.586;2023-05-10T07:37:49;99502.60;;;22.04;34.65
48718;BME280;34521;33.042;-96.586;2023-05-10T07:40:14;99504.73;;;22.17;34.57
48718;BME280;34521;33.042;-96.586;2023-05-10T07:42:40;99507.10;;;22.34;34.46
48718;BME280;34521;33.042;-96.586;2023-05-10T07:45:06;99507.17;;;22.70;34.04
48718;BME280;34521;33.042;-96.586;2023-05-10T07:47:29;99507.27;;;23.05;33.95
48718;BME280;34521;33.042;-96.586;2023-05-10T07:49:55;99504.24;;;22.31;36.49
48718;BME280;34521;33.042;-96.586;2023-05-10T07:52:20;99502.84;;;22.07;38.28
48718;BME280;34521;33.042;-96.586;2023-05-10T07:54:45;99501.59;;;21.97;38.30
48718;BME280;34521;33.042;-96.586;2023-05-10T07:57:10;99505.18;;;22.15;37.49
48718;BME280;34521;33.042;-96.586;2023-05-10T07:59:35;99507.58;;;22.51;36.89
48718;BME280;34521;33.042;-96.586;2023-05-10T08:02:00;99506.25;;;22.66;36.86
48718;BME280;34521;33.042;-96.586;2023-05-10T08:04:25;99508.56;;;22.93;36.41
48718;BME280;34521;33.042;-96.586;2023-05-10T08:06:50;99506.87;;;22.86;36.07
48718;BME280;34521;33.042;-96.586;2023-05-10T08:09:15;99502.96;;;23.20;35.52
48718;BME280;34521;33.042;-96.586;2023-05-10T08:11:45;99501.84;;;23.09;35.61
48718;BME280;34521;33.042;-96.586;2023-05-10T08:14:05;99497.69;;;22.09;36.81
48718;BME280;34521;33.042;-96.586;2023-05-10T08:16:30;99493.72;;;21.97;36.09
48718;BME280;34521;33.042;-96.586;2023-05-10T08:18:55;99489.80;;;22.17;34.88
48718;BME280;34521;33.042;-96.586;2023-05-10T08:21:20;99490.61;;;22.07;35.55
48718;BME280;34521;33.042;-96.586;2023-05-10T08:23:45;99494.72;;;22.15;34.82
48718;BME280;34521;33.042;-96.586;2023-05-10T08:26:10;99497.96;;;22.59;34.99
48718;BME280;34521;33.042;-96.586;2023-05-10T08:28:35;99496.80;;;22.51;34.86
48718;BME280;34521;33.042;-96.586;2023-05-10T08:31:01;99493.08;;;22.79;34.90
48718;BME280;34521;33.042;-96.586;2023-05-10T08:33:25;99486.74;;;22.53;34.71
48718;BME280;34521;33.042;-96.586;2023-05-10T08:35:51;99480.06;;;22.57;34.75
48718;BME280;34521;33.042;-96.586;2023-05-10T08:38:16;99475.29;;;22.66;34.69
48718;BME280;34521;33.042;-96.586;2023-05-10T08:40:42;99470.91;;;23.27;34.58
48718;BME280;34521;33.042;-96.586;2023-05-10T08:43:08;99467.84;;;22.90;34.56
48718;BME280;34521;33.042;-96.586;2023-05-10T08:45:33;99467.24;;;22.20;36.40
48718;BME280;34521;33.042;-96.586;2023-05-10T08:47:56;99459.00;;;22.04;38.28
48718;BME280;34521;33.042;-96.586;2023-05-10T08:50:22;99461.38;;;21.59;40.22
48718;BME280;34521;33.042;-96.586;2023-05-10T08:52:47;99467.81;;;21.55;41.48
48718;BME280;34521;33.042;-96.586;2023-05-10T08:55:11;99466.44;;;22.36;39.06
48718;BME280;34521;33.042;-96.586;2023-05-10T08:57:37;99464.86;;;22.46;38.41
48718;BME280;34521;33.042;-96.586;2023-05-10T09:00:01;99461.38;;;22.35;38.13
48718;BME280;34521;33.042;-96.586;2023-05-10T09:02:26;99456.88;;;22.51;37.82
48718;BME280;34521;33.042;-96.586;2023-05-10T09:04:51;99453.55;;;22.86;37.11
48718;BME280;34521;33.042;-96.586;2023-05-10T09:07:16;99451.83;;;23.33;36.94
48718;BME280;34521;33.042;-96.586;2023-05-10T09:09:41;99449.39;;;23.34;36.12
48718;BME280;34521;33.042;-96.586;2023-05-10T09:12:07;99443.69;;;21.58;38.18
48718;BME280;34521;33.042;-96.586;2023-05-10T09:14:31;99448.28;;;21.40;37.55
48718;BME280;34521;33.042;-96.586;2023-05-10T09:16:57;99442.32;;;21.85;36.06
48718;BME280;34521;33.042;-96.586;2023-05-10T09:19:21;99436.83;;;22.24;35.85
48718;BME280;34521;33.042;-96.586;2023-05-10T09:21:46;99434.52;;;22.01;36.10
48718;BME280;34521;33.042;-96.586;2023-05-10T09:24:12;99431.78;;;22.30;35.90
48718;BME280;34521;33.042;-96.586;2023-05-10T09:26:45;99431.23;;;22.51;35.39
48718;BME280;34521;33.042;-96.586;2023-05-10T09:29:02;99423.53;;;22.10;35.63
48718;BME280;34521;33.042;-96.586;2023-05-10T09:33:52;99423.56;;;22.66;35.02
48718;BME280;34521;33.042;-96.586;2023-05-10T09:36:17;99433.31;;;22.71;35.01
48718;BME280;34521;33.042;-96.586;2023-05-10T09:38:48;99436.77;;;23.11;34.61
48718;BME280;34521;33.042;-96.586;2023-05-10T09:41:15;99442.89;;;22.91;34.90
48718;BME280;34521;33.042;-96.586;2023-05-10T09:43:38;99440.47;;;23.20;34.55
48718;BME280;34521;33.042;-96.586;2023-05-10T09:45:56;99440.75;;;23.09;34.71
48718;BME280;34521;33.042;-96.586;2023-05-10T09:48:24;99437.32;;;22.30;38.26
48718;BME280;34521;33.042;-96.586;2023-05-10T09:53:15;99429.50;;;21.77;39.62
48718;BME280;34521;33.042;-96.586;2023-05-10T09:55:42;99426.93;;;22.50;38.66
48718;BME280;34521;33.042;-96.586;2023-05-10T09:58:02;99426.91;;;22.78;38.07
48718;BME280;34521;33.042;-96.586;2023-05-10T10:00:27;99426.24;;;22.33;37.98
48718;BME280;34521;33.042;-96.586;2023-05-10T10:02:56;99429.75;;;23.04;37.49
48718;BME280;34521;33.042;-96.586;2023-05-10T10:05:17;99431.35;;;23.12;36.54
48718;BME280;34521;33.042;-96.586;2023-05-10T10:07:41;99433.76;;;22.81;36.76
48718;BME280;34521;33.042;-96.586;2023-05-10T10:10:08;99428.75;;;22.13;37.09
48718;BME280;34521;33.042;-96.586;2023-05-10T10:12:32;99425.50;;;21.61;37.75
48718;BME280;34521;33.042;-96.586;2023-05-10T10:14:57;99426.07;;;21.58;37.16
48718;BME280;34521;33.042;-96.586;2023-05-10T10:17:22;99422.99;;;21.90;36.71
48718;BME280;34521;33.042;-96.586;2023-05-10T10:19:49;99418.47;;;22.07;35.95
48718;BME280;34521;33.042;-96.586;2023-05-10T10:22:12;99418.09;;;21.97;35.99
48718;BME280;34521;33.042;-96.586;2023-05-10T10:24:37;99411.74;;;22.28;35.89
48718;BME280;34521;33.042;-96.586;2023-05-10T10:27:11;99411.27;;;22.80;34.84
48718;BME280;34521;33.042;-96.586;2023-05-10T10:29:32;99407.84;;;23.40;34.08
48718;BME280;34521;33.042;-96.586;2023-05-10T10:32:01;99408.53;;;23.57;34.17
48718;BME280;34521;33.042;-96.586;2023-05-10T10:34:25;99408.14;;;23.59;34.24
48718;BME280;34521;33.042;-96.586;2023-05-10T10:36:45;99409.34;;;23.17;34.83
48718;BME280;34521;33.042;-96.586;2023-05-10T10:39:11;99409.35;;;23.01;34.81
48718;BME280;34521;33.042;-96.586;2023-05-10T10:41:34;99409.70;;;23.18;34.65
48718;BME280;34521;33.042;-96.586;2023-05-10T10:46:22;99406.38;;;21.72;38.31
48718;BME280;34521;33.042;-96.586;2023-05-10T10:48:51;99409.49;;;22.71;37.95
48718;BME280;34521;33.042;-96.586;2023-05-10T10:51:13;99406.65;;;22.73;38.56
48718;BME280;34521;33.042;-96.586;2023-05-10T10:53:39;99406.68;;;22.81;37.48
48718;BME280;34521;33.042;-96.586;2023-05-10T10:56:07;99410.51;;;23.27;37.11
48718;BME280;34521;33.042;-96.586;2023-05-10T10:58:31;99412.91;;;23.18;36.92
48718;BME280;34521;33.042;-96.586;2023-05-10T11:03:17;99406.41;;;23.09;36.77
48718;BME280;34521;33.042;-96.586;2023-05-10T11:05:43;99402.36;;;23.07;36.65
48718;BME280;34521;33.042;-96.586;2023-05-10T11:08:11;99395.80;;;23.31;36.25
48718;BME280;34521;33.042;-96.586;2023-05-10T11:10:33;99399.53;;;22.87;36.14
48718;BME280;34521;33.042;-96.586;2023-05-10T11:13:01;99399.39;;;22.50;35.13
48718;BME280;34521;33.042;-96.586;2023-05-10T11:15:29;99404.10;;;22.17;36.39
48718;BME280;34521;33.042;-96.586;2023-05-10T11:17:49;99407.45;;;22.46;35.77
48718;BME280;34521;33.042;-96.586;2023-05-10T11:20:15;99415.31;;;22.76;34.82
48718;BME280;34521;33.042;-96.586;2023-05-10T11:22:50;99417.45;;;23.13;35.06
48718;BME280;34521;33.042;-96.586;2023-05-10T11:25:03;99421.41;;;22.77;34.93
48718;BME280;34521;33.042;-96.586;2023-05-10T11:27:28;99427.45;;;22.76;34.98
48718;BME280;34521;33.042;-96.586;2023-05-10T11:29:53;99429.41;;;22.65;35.18
48718;BME280;34521;33.042;-96.586;2023-05-10T11:32:18;99427.54;;;22.89;35.28
48718;BME280;34521;33.042;-96.586;2023-05-10T11:34:46;99427.49;;;22.91;35.37
48718;BME280;34521;33.042;-96.586;2023-05-10T11:37:08;99431.12;;;22.92;35.42
48718;BME280;34521;33.042;-96.586;2023-05-10T11:39:33;99428.67;;;22.90;35.21
48718;BME280;34521;33.042;-96.586;2023-05-10T11:41:58;99427.24;;;22.70;35.50
48718;BME280;34521;33.042;-96.586;2023-05-10T11:44:23;99420.69;;;21.90;38.86
48718;BME280;34521;33.042;-96.586;2023-05-10T11:46:49;99419.87;;;21.48;40.40
48718;BME280;34521;33.042;-96.586;2023-05-10T11:49:13;99423.08;;;22.55;39.79
48718;BME280;34521;33.042;-96.586;2023-05-10T11:51:38;99431.06;;;22.49;39.09
48718;BME280;34521;33.042;-96.586;2023-05-10T11:54:07;99444.05;;;22.99;38.45
48718;BME280;34521;33.042;-96.586;2023-05-10T11:56:28;99447.58;;;22.99;38.14
48718;BME280;34521;33.042;-96.586;2023-05-10T11:58:55;99445.62;;;22.93;37.78
48718;BME280;34521;33.042;-96.586;2023-05-10T12:01:18;99442.47;;;22.85;37.74
48718;BME280;34521;33.042;-96.586;2023-05-10T12:03:43;99443.81;;;21.33;39.26
48718;BME280;34521;33.042;-96.586;2023-05-10T12:06:08;99452.52;;;22.64;36.12
48718;BME280;34521;33.042;-96.586;2023-05-10T12:08:33;99458.21;;;22.53;35.20
48718;BME280;34521;33.042;-96.586;2023-05-10T12:11:04;99457.16;;;22.04;36.64
48718;BME280;34521;33.042;-96.586;2023-05-10T12:13:23;99460.60;;;23.18;35.08
48718;BME280;34521;33.042;-96.586;2023-05-10T12:15:48;99462.98;;;23.00;35.06
48718;BME280;34521;33.042;-96.586;2023-05-10T12:18:14;99465.88;;;22.91;34.94
48718;BME280;34521;33.042;-96.586;2023-05-10T12:20:39;99474.66;;;23.24;34.90
48718;BME280;34521;33.042;-96.586;2023-05-10T12:23:03;99476.61;;;23.01;34.94
48718;BME280;34521;33.042;-96.586;2023-05-10T12:25:31;99482.87;;;22.93;35.10
48718;BME280;34521;33.042;-96.586;2023-05-10T12:27:54;99493.14;;;22.89;35.22
48718;BME280;34521;33.042;-96.586;2023-05-10T12:30:22;99501.86;;;22.82;35.38
48718;BME280;34521;33.042;-96.586;2023-05-10T12:32:44;99502.16;;;23.06;35.45
48718;BME280;34521;33.042;-96.586;2023-05-10T12:35:08;99505.25;;;22.93;35.34
48718;BME280;34521;33.042;-96.586;2023-05-10T12:37:34;99503.01;;;22.81;35.57
48718;BME280;34521;33.042;-96.586;2023-05-10T12:39:59;99501.95;;;22.85;35.54
48718;BME280;34521;33.042;-96.586;2023-05-10T12:42:24;99498.82;;;22.84;35.57
48718;BME280;34521;33.042;-96.586;2023-05-10T12:44:49;99494.95;;;22.10;38.81